Terminal Aerodrome Forecast
Issued by NWS Omaha/Valley, NE

Home | Current Version | Previous Version | Text Only | Print | Product List | Glossary Off
Versions: 1 2 3 4 5 6 7 8 9 10 11 12 13 14 15 16 17 18 19 20 21 22 23

000
FTUS43 KOAX 241720
TAFOFK
TAF
KOFK 241720Z 2418/2518 19018G26KT P6SM SCT200
     FM242200 24013KT P6SM SCT200
     FM250300 34007KT P6SM BKN150
     FM251000 02007KT P6SM VCSH BKN070
     FM251500 01009KT P6SM -RA BKN025=

USA.gov is the U.S. government's official web portal to all federal, state and local government web resources and services.